Time;durP1;ratioP1;P1;durP2;ratioP2;P2;SDS_P1;SDS_P2;PMS_P1;PMS_P2;Temp;Humidity;BMP_temperature;BMP_pressure;BME280_temperature;BME280_humidity;BME280_pressure;Samples;Min_cycle;Max_cycle;Signal;HPM_P1;HPM_P2
2022/10/31 00:02:18;;;;;;;28.63;14.13;;;;;;;12.07;100.00;102043.78;5076765;28;20493;-90
2022/10/31 00:04:43;;;;;;;27.38;14.35;;;;;;;12.01;100.00;102036.00;5068322;28;20028;-90
2022/10/31 00:07:09;;;;;;;27.92;14.15;;;;;;;12.00;100.00;102044.72;5067740;28;20036;-90
2022/10/31 00:09:34;;;;;;;26.17;14.07;;;;;;;12.03;100.00;102056.78;5069542;28;20024;-91
2022/10/31 00:11:59;;;;;;;30.33;13.60;;;;;;;11.91;100.00;102041.34;5067828;28;20049;-90
2022/10/31 00:14:25;;;;;;;26.45;13.98;;;;;;;11.85;100.00;102044.88;5074634;28;20063;-90
2022/10/31 00:16:50;;;;;;;28.40;14.07;;;;;;;11.93;100.00;102069.03;5075820;28;20078;-90
2022/10/31 00:19:15;;;;;;;27.70;14.52;;;;;;;11.90;100.00;102070.78;5071158;28;20031;-90
2022/10/31 00:21:41;;;;;;;26.52;14.88;;;;;;;11.87;100.00;102076.91;5067895;28;20028;-91
2022/10/31 00:24:06;;;;;;;27.33;13.23;;;;;;;11.73;100.00;102060.53;5069935;28;20017;-90
2022/10/31 00:26:32;;;;;;;25.95;14.10;;;;;;;11.73;100.00;102068.31;5070057;28;20049;-90
2022/10/31 00:28:59;;;;;;;25.75;13.60;;;;;;;11.62;100.00;102060.59;5069300;28;20058;-90
2022/10/31 00:31:24;;;;;;;23.00;13.52;;;;;;;11.57;100.00;102059.78;5068655;28;20531;-90
2022/10/31 00:33:50;;;;;;;24.75;13.45;;;;;;;11.57;100.00;102062.38;5066681;28;20622;-90
2022/10/31 00:36:18;;;;;;;25.55;14.13;;;;;;;11.49;100.00;102065.06;5063945;28;20031;-90
2022/10/31 00:38:44;;;;;;;25.45;13.32;;;;;;;11.42;100.00;102059.91;5069449;28;20024;-90
2022/10/31 00:41:11;;;;;;;23.50;13.07;;;;;;;11.43;100.00;102067.69;5069308;28;20024;-91
2022/10/31 00:43:36;;;;;;;24.48;12.85;;;;;;;11.29;100.00;102048.75;5066649;28;20055;-89
2022/10/31 00:46:02;;;;;;;24.15;13.25;;;;;;;11.18;100.00;102040.19;5072302;28;20058;-90
2022/10/31 00:48:30;;;;;;;25.00;13.63;;;;;;;11.18;100.00;102041.94;5065830;28;20500;-91
2022/10/31 00:50:56;;;;;;;24.10;12.68;;;;;;;11.22;100.00;102051.41;5065688;28;20025;-89
2022/10/31 00:53:22;;;;;;;24.25;13.57;;;;;;;11.16;100.00;102051.44;5076376;28;20412;-89
2022/10/31 00:55:47;;;;;;;24.20;12.75;;;;;;;11.10;100.00;102044.56;5081261;28;20170;-90
2022/10/31 00:58:13;;;;;;;25.45;13.13;;;;;;;11.07;100.00;102047.19;5069376;28;20028;-89
2022/10/31 01:00:38;;;;;;;27.35;12.55;;;;;;;11.11;100.00;102053.22;5067630;28;20112;-89
2022/10/31 01:03:04;;;;;;;27.10;12.95;;;;;;;11.11;100.00;102061.00;5067424;28;20032;-91
2022/10/31 01:05:30;;;;;;;26.23;13.05;;;;;;;11.05;100.00;102062.75;5068125;28;20051;-90
2022/10/31 01:07:55;;;;;;;24.77;13.00;;;;;;;11.08;100.00;102067.06;5067979;28;20498;-89
2022/10/31 01:10:21;;;;;;;25.58;12.95;;;;;;;11.01;100.00;102049.81;5068640;28;20095;-90
2022/10/31 01:12:48;;;;;;;21.95;12.82;;;;;;;10.93;100.00;102049.84;5068968;28;20043;-90
2022/10/31 01:15:16;;;;;;;25.67;13.57;;;;;;;10.93;100.00;102046.41;5072763;28;20120;-89
2022/10/31 01:17:42;;;;;;;28.58;14.27;;;;;;;11.07;100.00;102065.34;5066668;28;20028;-89
2022/10/31 01:20:08;;;;;;;25.45;13.40;;;;;;;11.01;100.00;102042.03;5066826;28;20323;-90
2022/10/31 01:22:34;;;;;;;29.65;14.18;;;;;;;11.01;100.00;102035.09;5066825;28;20481;-89
2022/10/31 01:24:59;;;;;;;27.70;13.80;;;;;;;11.01;100.00;102036.84;5069012;28;20025;-91
2022/10/31 01:27:25;;;;;;;27.77;14.13;;;;;;;11.04;100.00;102048.09;5069218;28;20020;-90
2022/10/31 01:29:50;;;;;;;23.40;12.27;;;;;;;10.94;100.00;102015.25;5066200;28;20066;-90
2022/10/31 01:32:16;;;;;;;24.13;12.57;;;;;;;11.00;100.00;102032.53;5068743;28;20082;-90
2022/10/31 01:34:41;;;;;;;25.00;12.80;;;;;;;10.88;100.00;102030.88;5068786;28;20369;-89
2022/10/31 01:37:07;;;;;;;23.00;12.65;;;;;;;10.87;100.00;102029.16;5068039;28;20025;-91
2022/10/31 01:39:32;;;;;;;22.95;12.60;;;;;;;10.87;100.00;102034.31;5068544;28;20397;-90
2022/10/31 01:41:58;;;;;;;24.88;12.95;;;;;;;10.90;100.00;102049.03;5068890;28;20028;-90
2022/10/31 01:44:23;;;;;;;23.80;12.50;;;;;;;10.88;100.00;102046.44;5070269;28;20165;-89
2022/10/31 01:46:48;;;;;;;23.83;13.00;;;;;;;10.86;100.00;102040.38;5067867;28;20107;-89
2022/10/31 01:49:23;;;;;;;28.30;13.50;;;;;;;10.78;100.00;102038.72;5067304;28;20070;-90
2022/10/31 01:52:03;;;;;;;22.02;12.98;;;;;;;10.72;100.00;102028.34;5067377;28;20373;-90
2022/10/31 01:54:37;;;;;;;27.10;14.00;;;;;;;10.81;100.00;102043.88;5068495;28;20077;-90
2022/10/31 01:57:06;;;;;;;22.63;12.68;;;;;;;10.78;100.00;102046.50;5070559;28;20421;-90
2022/10/31 01:59:36;;;;;;;23.23;12.50;;;;;;;10.83;100.00;102050.78;5069305;28;20371;-89
2022/10/31 02:02:01;;;;;;;24.73;12.68;;;;;;;10.76;100.00;102040.47;5071058;28;20421;-89
2022/10/31 02:04:27;;;;;;;25.90;12.68;;;;;;;10.81;100.00;102054.25;5074855;28;20474;-90
2022/10/31 02:07:07;;;;;;;25.05;12.73;;;;;;;10.78;100.00;102049.94;5071911;28;20028;-89
2022/10/31 02:09:34;;;;;;;25.10;12.57;;;;;;;10.77;100.00;102050.81;5071198;28;20548;-90
2022/10/31 02:12:00;;;;;;;24.27;12.55;;;;;;;10.67;100.00;102031.84;5069922;28;20119;-91
2022/10/31 02:14:29;;;;;;;23.05;11.80;;;;;;;10.62;100.00;102025.84;5067702;28;20025;-90
2022/10/31 02:16:54;;;;;;;25.42;12.70;;;;;;;10.72;100.00;102043.91;5083536;28;20035;-90
2022/10/31 02:19:40;;;;;;;22.92;12.40;;;;;;;10.69;100.00;102042.22;5070811;28;20028;-89
2022/10/31 02:22:28;;;;;;;25.92;12.48;;;;;;;10.63;100.00;102034.47;5070145;28;20072;-90
2022/10/31 02:25:23;;;;;;;24.60;12.38;;;;;;;10.61;100.00;102028.44;5071958;28;20469;-89
2022/10/31 02:28:10;;;;;;;21.40;12.20;;;;;;;10.55;100.00;102029.31;5071866;28;20024;-89
2022/10/31 02:30:47;;;;;;;24.55;12.05;;;;;;;10.53;100.00;102038.81;5061828;28;20619;-90
2022/10/31 02:33:25;;;;;;;22.92;12.25;;;;;;;10.42;100.00;102024.19;5070041;28;20039;-89
2022/10/31 02:36:07;;;;;;;22.00;12.07;;;;;;;10.41;100.00;102032.84;5070922;28;20472;-90
2022/10/31 02:38:45;;;;;;;21.58;11.90;;;;;;;10.28;100.00;102026.84;5071125;28;20016;-89
2022/10/31 02:41:27;;;;;;;23.67;12.23;;;;;;;10.30;100.00;102035.47;5070852;28;20029;-90
2022/10/31 02:44:14;;;;;;;22.92;12.27;;;;;;;10.25;100.00;102035.47;5066759;28;20023;-90
2022/10/31 02:47:01;;;;;;;22.42;11.30;;;;;;;10.18;100.00;102040.69;5068988;28;20119;-89
2022/10/31 02:49:53;;;;;;;21.73;11.43;;;;;;;10.11;100.00;102039.81;5067760;28;20032;-90
2022/10/31 02:52:25;;;;;;;22.15;11.80;;;;;;;10.01;100.00;102032.06;5071131;28;20105;-90
2022/10/31 02:54:52;;;;;;;23.10;11.68;;;;;;;9.99;100.00;102037.25;5074452;28;20499;-90
2022/10/31 02:57:24;;;;;;;18.73;10.80;;;;;;;9.96;100.00;102039.00;5070431;28;20036;-90
2022/10/31 02:59:56;;;;;;;21.10;11.10;;;;;;;9.84;100.00;102024.31;5087209;28;20147;-90
2022/10/31 03:02:34;;;;;;;20.58;10.68;;;;;;;9.92;100.00;102035.53;5070781;28;20062;-90
2022/10/31 03:05:08;;;;;;;18.83;10.57;;;;;;;9.88;100.00;102037.28;5070214;28;20024;-90
2022/10/31 03:07:37;;;;;;;;;;;;;;;9.95;100.00;102043.31;5070533;28;20036;-89
2022/10/31 03:10:08;;;;;;;19.35;10.10;;;;;;;9.91;100.00;102041.56;5097963;28;19916;-89
2022/10/31 03:12:45;;;;;;;19.50;9.38;;;;;;;9.90;100.00;102039.84;5071110;28;20535;-90
2022/10/31 03:15:25;;;;;;;18.25;10.25;;;;;;;9.89;100.00;102045.91;5071160;28;20020;-89
2022/10/31 03:17:59;;;;;;;21.05;10.32;;;;;;;9.84;100.00;102045.91;5059211;28;20077;-89
2022/10/31 03:20:30;;;;;;;20.63;11.13;;;;;;;9.85;100.00;102044.19;5065451;28;20623;-91
2022/10/31 03:22:58;;;;;;;19.27;10.60;;;;;;;9.82;100.00;102042.47;5071500;28;20047;-92
2022/10/31 03:25:24;;;;;;;19.38;11.02;;;;;;;9.83;100.00;102048.47;5079337;28;20028;-90
2022/10/31 03:27:52;;;;;;;18.77;10.30;;;;;;;9.77;100.00;102032.97;5081238;28;20120;-89
2022/10/31 03:30:17;;;;;;;17.48;10.70;;;;;;;9.77;100.00;102041.59;5069860;28;20056;-89
2022/10/31 03:32:49;;;;;;;18.42;10.75;;;;;;;9.81;100.00;102050.25;5065920;28;20025;-89
2022/10/31 03:35:19;;;;;;;17.58;10.30;;;;;;;9.78;100.00;102045.91;5070127;28;20365;-90
2022/10/31 03:37:46;;;;;;;19.83;11.10;;;;;;;9.75;100.00;102042.47;5071649;28;20078;-89
2022/10/31 03:40:14;;;;;;;15.98;9.82;;;;;;;9.63;100.00;102030.38;5068935;28;20021;-90
2022/10/31 03:42:43;;;;;;;23.15;10.48;;;;;;;9.55;100.00;102026.09;5069633;28;20036;-90
2022/10/31 03:45:16;;;;;;;20.17;11.05;;;;;;;9.50;100.00;102019.19;5068880;28;20151;-90
2022/10/31 03:47:43;;;;;;;21.10;11.18;;;;;;;9.42;100.00;102020.03;5069692;28;20108;-90
2022/10/31 03:50:10;;;;;;;19.27;10.52;;;;;;;9.49;100.00;102034.69;5068413;28;20036;-90
2022/10/31 03:53:00;;;;;;;22.27;10.88;;;;;;;9.45;100.00;102035.56;5069383;28;20027;-90
2022/10/31 03:55:34;;;;;;;20.42;10.55;;;;;;;9.41;100.00;102042.50;5068256;28;20033;-90
2022/10/31 03:58:08;;;;;;;17.83;10.32;;;;;;;9.31;100.00;102035.56;5069631;28;20052;-90
2022/10/31 04:00:35;;;;;;;19.90;10.18;;;;;;;9.28;100.00;102032.97;5063050;28;20068;-90
2022/10/31 04:03:09;;;;;;;19.83;10.88;;;;;;;9.32;100.00;102039.88;5066880;28;20063;-89
2022/10/31 04:05:37;;;;;;;20.13;10.77;;;;;;;9.20;100.00;102023.50;5073194;28;20499;-90
2022/10/31 04:08:07;;;;;;;22.23;10.93;;;;;;;9.24;100.00;102025.22;5085278;28;20066;-89
2022/10/31 04:10:36;;;;;;;22.45;11.50;;;;;;;9.18;100.00;102025.22;5068958;28;20024;-89
2022/10/31 04:13:12;;;;;;;21.25;11.82;;;;;;;9.12;100.00;102023.50;5064586;28;20070;-89
2022/10/31 04:15:38;;;;;;;23.92;11.88;;;;;;;9.11;100.00;102026.94;5069118;28;20103;-90
2022/10/31 04:18:05;;;;;;;21.98;11.77;;;;;;;9.12;100.00;102039.00;5067685;28;20048;-90
2022/10/31 04:20:36;;;;;;;22.00;11.18;;;;;;;9.03;100.00;102024.34;5069951;28;20086;-89
2022/10/31 04:23:01;;;;;;;22.02;11.45;;;;;;;9.05;100.00;102030.38;5069050;28;20024;-90
2022/10/31 04:25:27;;;;;;;24.90;12.05;;;;;;;9.02;100.00;102024.31;5069241;28;20099;-90
2022/10/31 04:27:53;;;;;;;26.00;11.48;;;;;;;9.07;100.00;102041.59;5067555;28;20115;-89
2022/10/31 04:30:18;;;;;;;18.65;10.80;;;;;;;9.07;100.00;102045.91;5069145;28;20021;-90
2022/10/31 04:32:43;;;;;;;22.92;10.77;;;;;;;8.96;100.00;102029.47;5069310;28;20515;-90
2022/10/31 04:35:09;;;;;;;20.42;10.35;;;;;;;8.95;100.00;102028.63;5069655;28;20036;-89
2022/10/31 04:37:34;;;;;;;22.35;11.15;;;;;;;8.92;100.00;102025.19;5068568;28;20016;-89
2022/10/31 04:40:00;;;;;;;20.55;10.63;;;;;;;8.87;100.00;102019.97;5069778;28;20036;-90
2022/10/31 04:42:28;;;;;;;23.02;11.27;;;;;;;8.99;100.00;102042.44;5066512;28;20032;-90
2022/10/31 04:44:53;;;;;;;22.30;10.90;;;;;;;8.99;100.00;102034.69;5069555;28;20032;-90
2022/10/31 04:47:19;;;;;;;19.88;10.55;;;;;;;8.96;100.00;102030.34;5067649;28;20386;-90
2022/10/31 04:49:44;;;;;;;21.88;10.82;;;;;;;9.02;100.00;102030.34;5069623;28;20039;-90
2022/10/31 04:52:10;;;;;;;18.17;10.07;;;;;;;9.05;100.00;102038.13;5069700;28;20032;-89
2022/10/31 04:54:35;;;;;;;20.85;10.88;;;;;;;9.02;100.00;102035.53;5069745;28;20030;-90
2022/10/31 04:57:01;;;;;;;17.80;10.23;;;;;;;8.97;100.00;102016.56;5066713;28;20012;-90
2022/10/31 04:59:26;;;;;;;18.50;10.43;;;;;;;9.06;100.00;102031.25;5067858;28;20107;-89
2022/10/31 05:01:51;;;;;;;21.23;11.02;;;;;;;9.03;100.00;102031.22;5069283;28;20104;-89
2022/10/31 05:04:17;;;;;;;20.88;11.27;;;;;;;9.02;100.00;102032.94;5069308;28;20111;-89
2022/10/31 05:06:42;;;;;;;19.42;10.55;;;;;;;9.02;100.00;102038.13;5069857;28;20095;-89
2022/10/31 05:09:07;;;;;;;20.80;10.52;;;;;;;8.99;100.00;102029.50;5069479;28;20024;-89
2022/10/31 05:11:33;;;;;;;19.70;10.32;;;;;;;9.00;100.00;102028.66;5067757;28;20063;-89
2022/10/31 05:13:58;;;;;;;19.05;10.38;;;;;;;9.00;100.00;102020.88;5067480;28;20032;-90
2022/10/31 05:16:23;;;;;;;18.25;10.45;;;;;;;8.99;100.00;102026.91;5068076;28;20107;-90
2022/10/31 05:18:49;;;;;;;17.47;10.47;;;;;;;8.98;100.00;102017.44;5069527;28;20028;-90
2022/10/31 05:21:14;;;;;;;19.55;10.55;;;;;;;8.96;100.00;102019.13;5061896;28;20281;-89
2022/10/31 05:23:39;;;;;;;22.73;11.13;;;;;;;8.86;100.00;102007.94;5069479;28;20035;-89
2022/10/31 05:26:05;;;;;;;19.60;11.18;;;;;;;8.93;100.00;102016.56;5070167;28;20031;-89
2022/10/31 05:28:30;;;;;;;20.38;10.52;;;;;;;8.83;100.00;102007.91;5068404;28;20020;-90
2022/10/31 05:30:55;;;;;;;17.63;10.60;;;;;;;8.87;100.00;102017.41;5069579;28;20081;-90
2022/10/31 05:33:21;;;;;;;19.75;11.25;;;;;;;8.81;100.00;102016.53;5072196;28;20032;-89
2022/10/31 05:35:46;;;;;;;24.13;11.07;;;;;;;8.76;100.00;102011.34;5073088;28;20112;-90
2022/10/31 05:38:12;;;;;;;18.85;10.60;;;;;;;8.79;100.00;102016.53;5073029;28;20020;-90
2022/10/31 05:40:37;;;;;;;20.48;10.68;;;;;;;8.75;100.00;102016.50;5071496;28;20417;-90
2022/10/31 05:43:03;;;;;;;23.35;11.77;;;;;;;8.75;100.00;102016.50;5070379;28;20123;-90
2022/10/31 05:45:28;;;;;;;23.48;11.52;;;;;;;8.73;100.00;102004.44;5072995;28;20057;-90
2022/10/31 05:47:56;;;;;;;22.23;11.10;;;;;;;8.73;100.00;102008.78;5073950;28;20417;-90
2022/10/31 05:50:23;;;;;;;23.52;11.38;;;;;;;8.70;100.00;102003.56;5073457;28;20016;-90
2022/10/31 05:52:58;;;;;;;26.63;12.55;;;;;;;8.70;100.00;102001.84;5071410;28;20044;-89
2022/10/31 05:55:23;;;;;;;24.73;11.85;;;;;;;8.69;100.00;102000.13;5069172;28;20517;-90
2022/10/31 05:57:48;;;;;;;23.90;12.15;;;;;;;8.67;100.00;101990.63;5072885;28;20712;-89
2022/10/31 06:00:14;;;;;;;24.13;11.85;;;;;;;8.70;100.00;102001.00;5070814;28;20523;-89
2022/10/31 06:02:39;;;;;;;22.92;12.38;;;;;;;8.69;100.00;102004.44;5072054;28;20052;-89
2022/10/31 06:05:05;;;;;;;24.42;12.10;;;;;;;8.67;100.00;101993.22;5071966;28;20099;-89
2022/10/31 06:07:36;;;;;;;26.35;12.80;;;;;;;8.69;100.00;101997.53;5072385;28;20033;-89
2022/10/31 06:10:08;;;;;;;24.42;11.82;;;;;;;8.65;100.00;101992.38;5071884;28;20035;-89
2022/10/31 06:12:40;;;;;;;24.02;12.52;;;;;;;8.64;100.00;101995.81;5070793;28;20053;-89
2022/10/31 06:15:06;;;;;;;24.52;11.95;;;;;;;8.65;100.00;102000.13;5072314;28;20025;-89
2022/10/31 06:17:33;;;;;;;24.10;11.52;;;;;;;8.60;100.00;101994.94;5070105;28;20028;-90
2022/10/31 06:19:58;;;;;;;27.42;12.27;;;;;;;8.57;100.00;101987.19;5070826;28;20520;-89
2022/10/31 06:22:23;;;;;;;27.67;12.73;;;;;;;8.61;100.00;101995.78;5067345;28;20513;-90
2022/10/31 06:24:49;;;;;;;23.98;12.55;;;;;;;8.60;100.00;101991.47;5074750;28;20035;-89
2022/10/31 06:27:14;;;;;;;28.27;13.43;;;;;;;8.60;100.00;101994.06;5071508;28;20024;-90
2022/10/31 06:29:39;;;;;;;31.90;13.57;;;;;;;8.60;100.00;101999.22;5072131;28;20478;-89
2022/10/31 06:32:05;;;;;;;30.90;13.77;;;;;;;8.58;100.00;101988.91;5069517;28;20278;-89
2022/10/31 06:34:30;;;;;;;26.73;13.00;;;;;;;8.56;100.00;101990.63;5081716;28;20032;-89
2022/10/31 06:36:55;;;;;;;28.38;13.20;;;;;;;8.56;100.00;101980.28;5069909;28;20063;-89
2022/10/31 06:39:23;;;;;;;31.48;14.48;;;;;;;8.65;100.00;101995.81;5071790;28;20103;-90
2022/10/31 06:41:49;;;;;;;28.73;13.40;;;;;;;8.58;100.00;101978.56;5071909;28;20028;-90
2022/10/31 06:44:14;;;;;;;36.35;14.88;;;;;;;8.70;100.00;101999.28;5070710;28;20496;-90
2022/10/31 06:46:39;;;;;;;33.92;15.00;;;;;;;8.73;100.00;101996.69;5081947;28;20029;-90
2022/10/31 06:49:05;;;;;;;35.15;15.73;;;;;;;8.68;100.00;101993.22;5066890;28;20027;-90
2022/10/31 06:51:33;;;;;;;32.35;15.88;;;;;;;8.80;100.00;101996.72;5064711;28;20071;-90
2022/10/31 06:53:58;;;;;;;35.58;16.13;;;;;;;8.89;100.00;102001.88;5068714;28;20029;-90
2022/10/31 06:56:24;;;;;;;39.33;16.33;;;;;;;8.90;100.00;101986.38;5065499;28;20036;-90
2022/10/31 06:58:49;;;;;;;42.22;16.33;;;;;;;9.04;100.00;102000.19;5067786;28;20029;-89
2022/10/31 07:01:17;;;;;;;35.25;14.80;;;;;;;9.03;100.00;101989.84;5069338;28;20027;-89
2022/10/31 07:03:42;;;;;;;32.42;15.68;;;;;;;9.09;100.00;101995.88;5072500;28;20032;-89
2022/10/31 07:06:08;;;;;;;40.63;17.67;;;;;;;9.07;100.00;101973.50;5068554;28;20452;-89
2022/10/31 07:08:33;;;;;;;82.60;27.73;;;;;;;9.31;100.00;102001.06;5069096;28;20501;-90
2022/10/31 07:10:59;;;;;;;93.47;31.05;;;;;;;9.42;100.00;102004.50;5070190;28;20055;-89
2022/10/31 07:13:25;;;;;;;86.60;27.15;;;;;;;9.52;100.00;102001.94;5071646;28;20067;-90
2022/10/31 07:15:53;;;;;;;68.60;24.10;;;;;;;9.62;100.00;102002.75;5075272;28;20636;-89
2022/10/31 07:18:19;;;;;;;58.88;22.88;;;;;;;9.66;100.00;101990.69;5070619;28;20020;-90
2022/10/31 07:20:44;;;;;;;51.65;20.90;;;;;;;9.80;100.00;101999.31;5065673;28;20373;-90
2022/10/31 07:23:10;;;;;;;52.65;20.65;;;;;;;9.86;100.00;101997.56;5067410;28;20024;-89
2022/10/31 07:25:37;;;;;;;55.42;21.02;;;;;;;9.97;100.00;102001.84;5068958;28;20059;-89
2022/10/31 07:28:02;;;;;;;59.65;23.00;;;;;;;10.02;100.00;102002.72;5073541;28;20489;-90
2022/10/31 07:30:27;;;;;;;55.22;22.48;;;;;;;10.07;100.00;101998.38;5082712;28;20059;-90
2022/10/31 07:32:53;;;;;;;53.47;21.40;;;;;;;10.09;100.00;101992.34;5062218;28;20174;-89
2022/10/31 07:35:22;;;;;;;47.05;20.83;;;;;;;10.18;100.00;102007.00;5071026;28;20039;-89
2022/10/31 07:37:51;;;;;;;44.30;20.15;;;;;;;10.21;100.00;102005.28;5060336;28;20424;-89
2022/10/31 07:40:18;;;;;;;41.75;19.08;;;;;;;10.13;100.00;101993.16;5071503;28;20678;-91
2022/10/31 07:42:45;;;;;;;38.15;19.10;;;;;;;10.24;100.00;102012.16;5085460;28;20107;-90
2022/10/31 07:45:14;;;;;;;40.15;19.00;;;;;;;10.27;100.00;102009.56;5068935;28;20027;-89
2022/10/31 07:47:48;;;;;;;34.97;18.05;;;;;;;10.31;100.00;102013.84;5070612;28;20440;-89
2022/10/31 07:50:17;;;;;;;38.28;18.70;;;;;;;10.35;100.00;102020.78;5068840;28;20055;-89
2022/10/31 07:52:43;;;;;;;38.83;18.73;;;;;;;10.36;100.00;102016.44;5068848;28;20503;-89
2022/10/31 07:55:09;;;;;;;35.35;18.05;;;;;;;10.37;100.00;102021.63;5068992;28;20032;-90
2022/10/31 07:57:36;;;;;;;36.80;18.17;;;;;;;10.36;100.00;102009.53;5066836;28;20516;-90
2022/10/31 08:00:06;;;;;;;34.30;17.73;;;;;;;10.34;100.00;102008.66;5066914;28;20020;-89
2022/10/31 08:02:32;;;;;;;34.30;18.25;;;;;;;10.39;100.00;102013.81;5053442;28;20133;-89
2022/10/31 08:04:57;;;;;;;33.95;16.98;;;;;;;10.44;100.00;102010.34;5060026;28;20112;-89
2022/10/31 08:07:22;;;;;;;30.67;16.70;;;;;;;10.47;100.00;102012.94;5068559;28;20028;-89
2022/10/31 08:09:48;;;;;;;33.75;17.88;;;;;;;10.52;100.00;102013.75;5068892;28;20032;-91
2022/10/31 08:12:13;;;;;;;36.00;18.33;;;;;;;10.47;100.00;101999.97;5069325;28;20045;-91
2022/10/31 08:14:38;;;;;;;32.78;17.77;;;;;;;10.52;100.00;101995.63;5065338;28;20032;-90
2022/10/31 08:17:04;;;;;;;36.63;18.58;;;;;;;10.68;100.00;102017.16;5067520;28;20020;-91
2022/10/31 08:19:29;;;;;;;46.90;24.98;;;;;;;10.67;100.00;102007.66;5067559;28;20404;-91
2022/10/31 08:21:58;;;;;;;45.78;22.65;;;;;;;10.80;100.00;102009.28;5069595;28;20109;-90
2022/10/31 08:24:24;;;;;;;39.67;20.83;;;;;;;10.88;100.00;102009.25;5069652;28;20024;-90
2022/10/31 08:26:49;;;;;;;48.13;24.83;;;;;;;11.01;100.00;102014.34;5070612;28;20389;-91
2022/10/31 08:29:15;;;;;;;60.40;28.73;;;;;;;11.17;100.00;102011.66;5071544;28;20035;-90
2022/10/31 08:31:42;;;;;;;48.35;23.90;;;;;;;11.33;100.00;102010.66;5068910;28;20036;-89
2022/10/31 08:34:07;;;;;;;49.40;25.35;;;;;;;11.52;100.00;102009.66;5068060;28;20524;-91
2022/10/31 08:36:33;;;;;;;61.20;29.00;;;;;;;11.73;100.00;101996.47;5083994;28;20032;-89
2022/10/31 08:38:59;;;;;;;64.93;32.03;;;;;;;11.92;100.00;101989.38;5070282;28;20025;-90
2022/10/31 08:41:24;;;;;;;69.75;33.30;;;;;;;12.06;100.00;101987.47;5059696;28;20044;-91
2022/10/31 08:43:49;;;;;;;75.25;32.78;;;;;;;12.20;100.00;101980.38;5067956;28;20501;-90
2022/10/31 08:46:15;;;;;;;68.65;32.80;;;;;;;12.54;100.00;101987.75;5067934;28;20042;-92
2022/10/31 08:48:40;;;;;;;68.22;32.67;;;;;;;12.83;100.00;101990.78;5065161;28;20089;-90
2022/10/31 08:51:06;;;;;;;63.25;30.10;;;;;;;12.99;100.00;101987.06;5070103;28;20587;-89
2022/10/31 08:53:32;;;;;;;58.35;29.52;;;;;;;13.14;100.00;101975.59;5069059;28;20113;-90
2022/10/31 08:55:57;;;;;;;60.30;28.70;;;;;;;13.26;100.00;101966.72;5065419;28;20021;-90
2022/10/31 08:58:24;;;;;;;58.38;28.25;;;;;;;13.21;100.00;101938.16;5069015;28;20624;-89
2022/10/31 09:00:52;;;;;;;50.17;25.92;;;;;;;13.13;100.00;101921.81;5068982;28;20039;-90
2022/10/31 09:03:22;;;;;;;56.15;26.40;;;;;;;13.19;100.00;101947.72;5067101;28;20527;-90
2022/10/31 09:05:47;;;;;;;50.67;25.52;;;;;;;13.13;100.00;101934.81;5071874;28;20046;-90
2022/10/31 09:08:14;;;;;;;51.33;25.63;;;;;;;13.14;100.00;101941.75;5072071;28;20056;-90
2022/10/31 09:10:40;;;;;;;54.83;24.55;;;;;;;13.11;100.00;101941.75;5073431;28;20430;-89
2022/10/31 09:13:20;;;;;;;49.20;25.45;;;;;;;13.27;100.00;101953.69;5073109;28;20663;-90
2022/10/31 09:15:48;;;;;;;51.60;25.35;;;;;;;13.30;100.00;101955.38;5069984;28;20507;-89
2022/10/31 09:18:16;;;;;;;46.85;24.02;;;;;;;13.35;100.00;101954.41;5071900;28;20028;-89
2022/10/31 09:20:42;;;;;;;48.90;25.13;;;;;;;13.35;100.00;101954.41;5071745;28;20074;-90
2022/10/31 09:23:22;;;;;;;48.95;23.83;;;;;;;13.42;100.00;101955.16;5071739;28;20071;-91
2022/10/31 09:25:55;;;;;;;53.58;24.85;;;;;;;13.46;100.00;101962.03;5074162;28;20026;-92
2022/10/31 09:28:22;;;;;;;51.67;25.73;;;;;;;13.60;100.00;101982.63;5071316;28;20413;-92
2022/10/31 09:30:50;;;;;;;53.53;25.48;;;;;;;13.72;100.00;101975.44;5074911;28;20035;-90
2022/10/31 09:33:19;;;;;;;55.00;25.83;;;;;;;13.88;100.00;101957.75;5063429;28;20056;-89
2022/10/31 09:35:45;;;;;;;56.85;27.23;;;;;;;14.04;100.00;101948.75;5069999;28;20103;-90
2022/10/31 09:38:14;;;;;;;56.35;26.42;;;;;;;14.10;100.00;101930.38;5062544;28;20120;-91
2022/10/31 09:40:40;;;;;;;56.40;26.77;;;;;;;14.10;100.00;101921.69;5069697;28;20388;-90
2022/10/31 09:43:33;;;;;;;53.83;26.27;;;;;;;14.34;100.00;101935.94;5071770;28;20028;-89
2022/10/31 09:46:15;;;;;;;57.22;26.67;;;;;;;14.48;100.00;101918.28;5067093;28;20056;-90
2022/10/31 09:48:46;;;;;;;53.95;25.23;;;;;;;14.54;100.00;101902.47;5070333;28;20028;-89
2022/10/31 09:51:24;;;;;;;55.40;25.85;;;;;;;14.57;100.00;101898.06;5069198;28;20025;-90
2022/10/31 09:53:55;;;;;;;55.13;25.90;;;;;;;14.54;100.00;101881.59;5087350;28;20500;-90
2022/10/31 09:56:22;;;;;;;53.13;25.45;;;;;;;14.63;100.00;101894.44;5069642;28;20410;-90
2022/10/31 09:59:00;;;;;;;56.25;26.25;;;;;;;14.58;100.00;101901.53;5071969;28;20431;-91
2022/10/31 10:01:32;;;;;;;51.30;26.02;;;;;;;14.60;100.00;101890.16;5061731;28;20095;-90
2022/10/31 10:04:19;;;;;;;53.45;26.50;;;;;;;14.53;100.00;101890.34;5066616;28;20078;-91
2022/10/31 10:06:50;;;;;;;52.78;26.05;;;;;;;14.60;100.00;101915.41;5062806;28;20028;-90
2022/10/31 10:09:16;;;;;;;54.00;26.60;;;;;;;14.58;100.00;101905.00;5069275;28;20053;-90
2022/10/31 10:12:14;;;;;;;57.65;28.35;;;;;;;14.69;100.00;101904.75;5068455;28;20135;-91
2022/10/31 10:14:43;;;;;;;60.30;28.73;;;;;;;14.70;100.00;101905.59;5076911;28;20028;-90
2022/10/31 10:17:08;;;;;;;60.95;28.83;;;;;;;14.71;100.00;101900.34;5066580;28;20032;-89
2022/10/31 10:20:04;;;;;;;58.00;28.17;;;;;;;14.78;100.00;101885.41;5068499;28;20039;-90
2022/10/31 10:22:51;;;;;;;67.13;30.25;;;;;;;14.82;100.00;101864.38;5060969;28;20021;-91
2022/10/31 10:25:33;;;;;;;64.57;31.67;;;;;;;15.01;100.00;101876.09;5078981;28;20020;-91
2022/10/31 10:28:19;;;;;;;63.20;31.30;;;;;;;15.15;100.00;101865.28;5054400;28;20679;-91
2022/10/31 10:30:52;;;;;;;66.43;30.42;;;;;;;15.24;100.00;101858.97;5073068;28;20067;-89
2022/10/31 10:33:44;;;;;;;65.20;31.38;;;;;;;15.27;100.00;101833.63;5069360;28;20074;-90
2022/10/31 10:36:39;;;;;;;59.88;29.38;;;;;;;15.32;100.00;101836.09;5066660;28;20622;-92
2022/10/31 10:39:23;;;;;;;59.80;29.42;;;;;;;15.48;100.00;101847.84;5060019;28;20604;-91
2022/10/31 10:48:16;;;;;;;59.45;29.38;;;;;;;15.64;100.00;101835.22;5065408;28;20687;-91
2022/10/31 10:50:49;;;;;;;59.80;29.40;;;;;;;15.59;100.00;101830.13;5069110;28;20052;-90
2022/10/31 10:53:35;;;;;;;62.38;30.10;;;;;;;15.78;100.00;101839.16;5064979;28;20390;-91
2022/10/31 10:56:20;;;;;;;61.63;30.35;;;;;;;15.77;100.00;101826.97;5064839;28;20024;-90
2022/10/31 10:58:47;;;;;;;62.45;29.92;;;;;;;15.88;100.00;101837.13;5064008;28;20021;-91
2022/10/31 11:01:17;;;;;;;59.03;29.27;;;;;;;15.93;100.00;101848.31;5069148;28;20036;-90
2022/10/31 11:03:45;;;;;;;64.70;30.35;;;;;;;15.86;100.00;101820.63;5071322;28;20024;-90
2022/10/31 11:06:39;;;;;;;67.22;31.27;;;;;;;16.14;100.00;101834.59;5070807;28;20029;-90
2022/10/31 11:09:13;;;;;;;58.50;30.13;;;;;;;16.14;100.00;101812.81;5071135;28;20028;-91
2022/10/31 11:11:46;;;;;;;62.22;30.95;;;;;;;16.17;100.00;101802.25;5067184;28;20450;-92
2022/10/31 11:14:20;;;;;;;62.50;29.92;;;;;;;16.25;100.00;101799.38;5069470;28;20507;-91
2022/10/31 11:16:54;;;;;;;61.58;31.00;;;;;;;16.31;100.00;101809.66;5069310;28;20478;-90
2022/10/31 11:19:31;;;;;;;65.15;31.05;;;;;;;16.37;100.00;101820.78;5071215;28;20028;-91
2022/10/31 11:22:14;;;;;;;62.90;30.98;;;;;;;16.44;100.00;101817.06;5080085;28;20047;-90